ADDS METAR Data INFO
IDs: Format: Raw Decoded Include TAF

Data at: 0353 UTC 19 Feb 2018

KLAN 190253Z 16011G18KT 8SM CLR 01/M02 A3007 RMK AO2 SLP191 T00061022 58030
KLAN 190153Z 15011KT 8SM CLR 00/M03 A3011 RMK AO2 SLP206 T00001028
KLAN 190053Z 15011KT 9SM CLR M01/M03 A3014 RMK AO2 SLP218 T10061033
KLAN 182353Z 14012KT 9SM CLR 00/M04 A3016 RMK AO2 SLP224 T00001039 10033 20000 56016
KLAN 182253Z 16010KT 10SM CLR 01/M04 A3017 RMK AO2 SLP229 T00111039
KLAN 182153Z 16013KT 10SM CLR 02/M04 A3018 RMK AO2 SLP230 T00221039
KLAN 182053Z 17012KT 10SM CLR 02/M04 A3021 RMK AO2 SLP239 T00221039 58020
KLAN 181953Z 18013KT 10SM CLR 03/M03 A3024 RMK AO2 SLP247 T00281033
KLAN 181853Z 20011KT 10SM CLR 03/M04 A3026 RMK AO2 SLP256 T00281039
KLAN 181753Z 21011KT 10SM CLR 03/M04 A3027 RMK AO2 SLP260 T00281039 10028 21028 56007
KLAN 181653Z 17006KT 10SM CLR 01/M04 A3027 RMK AO2 SLP262 T00111039
KLAN 181553Z 20006KT 10SM CLR 00/M04 A3027 RMK AO2 SLP263 T00001039
KLAN 181453Z 19009KT 10SM FEW026 M01/M04 A3029 RMK AO2 SLP268 T10061044 51015
KLAN 181444Z 19009KT 10SM SCT025 M01/M04 A3029 RMK AO2 T10111044
KLAN 181353Z 20007KT 10SM OVC025 M02/M05 A3029 RMK AO2 SLP269 T10171050
KLAN 181253Z 21005KT 10SM OVC025 M02/M05 A3027 RMK AO2 SLP262 T10221050
KLAN 181153Z 20007KT 10SM OVC026 M03/M05 A3025 RMK AO2 SLP254 70005 T10281050 11011 21033 51027
KLAN 181053Z 27006KT 10SM OVC024 M02/M05 A3024 RMK AO2 SLP251 T10221050
KLAN 180953Z 27010KT 10SM OVC024 M02/M05 A3021 RMK AO2 SLP240 T10171050
KLAN 180853Z 29007KT 10SM OVC020 M01/M04 A3016 RMK AO2 SLP224 T10111039 53039
KLAN 180753Z 27014G19KT 9SM OVC017 M01/M03 A3012 RMK AO2 SLP207 T10111033
KLAN 180708Z 26013KT 7SM BKN016 OVC027 M01/M03 A3010 RMK AO2 T10111028
KLAN 180653Z 25012KT 7SM BKN012 OVC028 M01/M03 A3008 RMK AO2 SLP197 T10111028
KLAN 180612Z 24009KT 7SM BKN011 BKN018 OVC035 M02/M03 A3006 RMK AO2 T10171028
KLAN 180553Z 24006KT 7SM BKN037 M03/M03 A3005 RMK AO2 SLP186 60004 T10281033 11017 21039 53015
KLAN 180453Z 26004KT 6SM BR FEW024 SCT030 OVC038 M03/M03 A3003 RMK AO2 SLP179 T10281033 400111089
KLAN 180353Z 24004KT 4SM BR BKN039 M04/M04 A3001 RMK AO2 SNE13 SLP173 P0000 T10391039
KLAN 180326Z 26004KT 6SM BR FEW016 BKN033 OVC090 M03/M03 A3001 RMK AO2 SNE13 P0000 T10281033
KLAN 180253Z 27004KT 4SM -SN BR BKN016 OVC023 M02/M03 A3000 RMK AO2 SLP172 P0002 60004 T10221028 52010
KLAN 180246Z 28005KT 3SM -SN BR SCT018 OVC023 M02/M03 A3000 RMK AO2 P0002 T10221028
KLAN 180234Z 28004KT 2SM -SN BR BKN018 OVC025 M02/M03 A2999 RMK AO2 P0002 T10221028
KLAN 180207Z 30003KT 1 1/4SM -SN BR OVC019 M02/M03 A2999 RMK AO2 P0001 T10221028
KLAN 180153Z 29004KT 1 1/2SM -SN BR OVC019 M02/M03 A2999 RMK AO2 SLP166 P0002 T10221028
KLAN 180150Z 29004KT 1 3/4SM -SN BR OVC019 M02/M03 A2998 RMK AO2 P0002
KLAN 180124Z 28004KT 1 1/4SM -SN BR OVC021 M02/M03 A2997 RMK AO2 P0001 T10171028
KLAN 180117Z 28005KT 1 1/2SM -SN BR OVC023 M02/M03 A2997 RMK AO2 P0001 T10171028
KLAN 180105Z 28005KT 2 1/2SM -SN BR OVC029 M02/M03 A2997 RMK AO2 P0000 T10171028
KLAN 180053Z 26005KT 3SM -SN BR FEW007 OVC033 M02/M03 A2997 RMK AO2 SLP161 P0000 T10171028
KLAN 180049Z 25004KT 3SM -SN BR FEW007 OVC033 M02/M03 A2997 RMK AO2 P0000
KLAN 180036Z 24005KT 3SM -SN BR OVC031 M02/M03 A2996 RMK AO2 P0000 T10171028
KLAN 180030Z 23005KT 2 1/2SM -SN BR OVC029 M02/M03 A2996 RMK AO2 P0000 T10171028
KLAN 172353Z 23008KT 1 1/2SM -SN BR OVC021 M02/M04 A2996 RMK AO2 SNB20 SLP158 P0001 60001 T10171039 10011 21017 56003
KLAN 172350Z 23008KT 1 1/2SM -SN BR OVC023 M02/M04 A2996 RMK AO2 SNB20 P0001
KLAN 172339Z 23009KT 2 1/2SM -SN OVC027 M01/M04 A2996 RMK AO2 SNB20 P0000 T10111044
KLAN 172253Z 21009KT 10SM OVC060 01/M07 A2995 RMK AO2 SLP155 T00061067
KLAN 172153Z 23008KT 10SM SCT080 OVC100 01/M06 A2997 RMK AO2 SLP161 T00061061
KLAN 172053Z 21010KT 10SM OVC110 01/M06 A2996 RMK AO2 SLP157 T00111056 55014
KLAN 171953Z 24009KT 10SM BKN110 01/M06 A2996 RMK AO2 SLP156 T00111056
KLAN 171853Z 23010KT 10SM SCT023 00/M04 A3000 RMK AO2 SLP171 T00001044
KLAN 171839Z 22010KT 10SM BKN023 00/M05 A3001 RMK AO2 T00001050
KLAN 171753Z 22011KT 10SM CLR M01/M05 A3004 RMK AO2 SLP183 T10061050 11006 21067 58027
KLAN 171653Z 22009KT 10SM CLR M02/M06 A3007 RMK AO2 SLP197 T10171056